createdAt,value
2022-12-06T00:02:25.137Z,56.46
2022-12-06T00:04:58.367Z,56.44
2022-12-06T00:07:33.133Z,56.44
2022-12-06T00:10:08.353Z,56.40
2022-12-06T00:12:41.468Z,56.40
2022-12-06T00:15:15.075Z,56.46
2022-12-06T00:17:48.283Z,56.48
2022-12-06T00:20:21.830Z,56.52
2022-12-06T00:22:55.104Z,56.45
2022-12-06T00:25:28.368Z,56.42
2022-12-06T00:28:01.424Z,56.46
2022-12-06T00:30:34.341Z,56.55
2022-12-06T00:33:07.555Z,56.53
2022-12-06T00:35:40.652Z,56.53
2022-12-06T00:38:14.037Z,56.59
2022-12-06T00:40:47.078Z,56.65
2022-12-06T00:43:20.218Z,56.59
2022-12-06T00:45:53.484Z,56.56
2022-12-06T00:48:27.107Z,56.50
2022-12-06T00:51:00.335Z,56.51
2022-12-06T00:53:33.699Z,56.57
2022-12-06T00:56:07.857Z,56.66
2022-12-06T00:58:41.088Z,56.74
2022-12-06T01:01:16.809Z,56.68
2022-12-06T01:03:52.338Z,56.66
2022-12-06T01:06:28.322Z,56.64
2022-12-06T01:09:04.231Z,56.59
2022-12-06T01:11:37.782Z,56.64
2022-12-06T01:14:10.966Z,56.67
2022-12-06T01:16:44.231Z,56.67
2022-12-06T01:19:17.451Z,56.74
2022-12-06T01:21:54.291Z,56.81
2022-12-06T01:24:27.487Z,56.94
2022-12-06T01:27:00.750Z,56.92
2022-12-06T01:29:34.321Z,56.97
2022-12-06T01:32:08.482Z,56.95
2022-12-06T01:34:41.735Z,56.95
2022-12-06T01:37:14.676Z,56.95
2022-12-06T01:39:47.944Z,56.94
2022-12-06T01:42:21.704Z,56.89
2022-12-06T01:44:58.200Z,56.81
2022-12-06T01:47:34.052Z,56.85
2022-12-06T01:50:10.980Z,56.93
2022-12-06T01:52:47.263Z,56.88
2022-12-06T01:55:23.463Z,56.80
2022-12-06T01:57:59.607Z,56.74
2022-12-06T02:00:32.958Z,56.68
2022-12-06T02:03:08.689Z,56.68
2022-12-06T02:05:41.762Z,56.74
2022-12-06T02:08:16.552Z,56.73
2022-12-06T02:10:50.005Z,56.63
2022-12-06T02:13:24.306Z,56.67
2022-12-06T02:16:02.841Z,56.68
2022-12-06T02:18:40.535Z,56.66
2022-12-06T02:21:16.389Z,56.66
2022-12-06T02:24:24.581Z,56.62
2022-12-06T02:27:03.635Z,56.71
2022-12-06T02:30:03.355Z,56.71
2022-12-06T02:32:39.823Z,56.81
2022-12-06T02:35:16.767Z,56.87
2022-12-06T02:37:53.132Z,56.97
2022-12-06T02:40:29.090Z,56.97
2022-12-06T02:43:05.349Z,57.07
2022-12-06T02:45:41.471Z,57.14
2022-12-06T02:48:17.242Z,57.11
2022-12-06T02:50:53.315Z,57.10
2022-12-06T02:53:29.571Z,57.11
2022-12-06T02:56:11.226Z,57.15
2022-12-06T02:58:44.479Z,57.16
2022-12-06T03:01:21.044Z,57.19
2022-12-06T03:04:10.768Z,57.22
2022-12-06T03:06:57.687Z,57.20
2022-12-06T03:09:57.484Z,57.19
2022-12-06T03:12:35.600Z,57.21
2022-12-06T03:15:17.731Z,57.23
2022-12-06T03:17:53.973Z,57.19
2022-12-06T03:20:30.602Z,57.17
2022-12-06T03:23:06.802Z,57.18
2022-12-06T03:25:40.435Z,57.17
2022-12-06T03:28:15.673Z,57.22
2022-12-06T03:30:52.511Z,57.24
2022-12-06T03:33:28.133Z,57.29
2022-12-06T03:36:02.053Z,57.22
2022-12-06T03:38:38.235Z,57.18
2022-12-06T03:41:13.237Z,57.18
2022-12-06T03:43:46.777Z,57.15
2022-12-06T03:46:22.756Z,57.17
2022-12-06T03:48:59.437Z,57.17
2022-12-06T03:51:35.415Z,57.17
2022-12-06T03:54:10.448Z,57.18
2022-12-06T03:56:43.711Z,57.20
2022-12-06T03:59:17.151Z,57.25
2022-12-06T04:01:50.517Z,57.25
2022-12-06T04:04:24.746Z,57.25
2022-12-06T04:07:20.087Z,57.29
2022-12-06T04:09:55.057Z,57.36
2022-12-06T04:12:45.738Z,57.40
2022-12-06T04:15:20.408Z,57.54
2022-12-06T04:18:14.196Z,57.63
2022-12-06T04:21:07.398Z,57.66
2022-12-06T04:23:42.430Z,57.68
2022-12-06T04:26:17.337Z,57.81
2022-12-06T04:29:09.183Z,57.97
2022-12-06T04:32:00.620Z,58.01
2022-12-06T04:34:51.705Z,58.01
2022-12-06T04:37:42.340Z,57.92
2022-12-06T04:40:15.816Z,57.91
2022-12-06T04:43:06.282Z,58.06
2022-12-06T04:45:39.267Z,58.11
2022-12-06T04:48:14.632Z,58.07
2022-12-06T04:50:51.153Z,58.05
2022-12-06T04:53:29.674Z,58.01
2022-12-06T04:56:03.413Z,57.98
2022-12-06T04:58:36.955Z,58.10
2022-12-06T05:01:10.537Z,58.18
2022-12-06T05:03:44.468Z,58.15
2022-12-06T05:06:17.998Z,58.13
2022-12-06T05:08:51.273Z,58.09
2022-12-06T05:11:24.494Z,58.13
2022-12-06T05:13:57.681Z,58.18
2022-12-06T05:16:31.132Z,58.14
2022-12-06T05:19:04.423Z,58.12
2022-12-06T05:21:37.584Z,58.10
2022-12-06T05:24:11.754Z,58.09
2022-12-06T05:26:45.241Z,58.08
2022-12-06T05:29:20.063Z,58.03
2022-12-06T05:31:53.319Z,58.05
2022-12-06T05:34:27.663Z,58.11
2022-12-06T05:37:00.828Z,58.08
2022-12-06T05:39:33.988Z,58.02
2022-12-06T05:42:07.396Z,58.00
2022-12-06T05:44:41.365Z,58.00
2022-12-06T05:47:14.701Z,58.07
2022-12-06T05:49:48.155Z,58.07
2022-12-06T05:52:22.641Z,57.99
2022-12-06T05:54:56.010Z,57.93
2022-12-06T05:57:29.280Z,57.89
2022-12-06T06:00:02.648Z,57.87
2022-12-06T06:02:37.806Z,57.79
2022-12-06T06:05:12.323Z,57.71
2022-12-06T06:07:46.010Z,57.67
2022-12-06T06:10:19.803Z,57.62
2022-12-06T06:12:54.257Z,57.57
2022-12-06T06:15:27.365Z,57.42
2022-12-06T06:18:00.539Z,57.44
2022-12-06T06:20:33.793Z,57.44
2022-12-06T06:23:06.939Z,57.28
2022-12-06T06:25:41.732Z,57.41
2022-12-06T06:28:14.866Z,57.03
2022-12-06T06:30:48.055Z,56.85
2022-12-06T06:33:21.351Z,56.80
2022-12-06T06:35:54.370Z,56.73
2022-12-06T06:38:27.533Z,56.82
2022-12-06T06:41:03.827Z,56.83
2022-12-06T06:43:37.002Z,56.78
2022-12-06T06:46:11.308Z,56.30
2022-12-06T06:48:44.773Z,55.81
2022-12-06T06:51:18.232Z,55.26
2022-12-06T06:53:51.370Z,54.89
2022-12-06T06:56:24.438Z,54.47
2022-12-06T06:58:57.607Z,54.17
2022-12-06T07:01:30.841Z,54.38
2022-12-06T07:04:04.873Z,54.59
2022-12-06T07:06:38.220Z,54.48
2022-12-06T07:09:12.356Z,54.67
2022-12-06T07:11:45.751Z,54.74
2022-12-06T07:14:18.904Z,54.92
2022-12-06T07:16:52.213Z,55.03
2022-12-06T07:19:25.617Z,54.93
2022-12-06T07:21:58.991Z,55.23
2022-12-06T07:24:35.664Z,55.06
2022-12-06T07:27:07.028Z,54.91
2022-12-06T07:29:40.181Z,54.97
2022-12-06T07:32:13.355Z,54.72
2022-12-06T07:34:46.568Z,54.76
2022-12-06T07:37:20.672Z,54.85
2022-12-06T07:39:53.617Z,54.91
2022-12-06T07:42:44.554Z,53.21
2022-12-06T07:45:18.685Z,52.46
2022-12-06T07:47:51.954Z,52.09
2022-12-06T07:50:25.626Z,52.16
2022-12-06T07:53:00.537Z,52.26
2022-12-06T07:55:33.792Z,52.28
2022-12-06T07:58:06.945Z,52.38
2022-12-06T08:00:41.681Z,52.29
2022-12-06T08:03:15.134Z,52.59
2022-12-06T08:05:56.989Z,52.74
2022-12-06T08:08:30.943Z,52.73
2022-12-06T08:11:05.451Z,52.90
2022-12-06T08:13:46.122Z,51.92
2022-12-06T08:16:20.173Z,50.74
2022-12-06T08:18:53.628Z,50.31
2022-12-06T08:21:27.173Z,50.27
2022-12-06T08:24:00.429Z,49.41
2022-12-06T08:26:34.305Z,48.61
2022-12-06T08:29:07.889Z,48.38
2022-12-06T08:31:41.430Z,48.28
2022-12-06T08:34:16.436Z,46.79
2022-12-06T08:36:49.674Z,46.76
2022-12-06T08:39:24.410Z,47.34
2022-12-06T08:41:58.429Z,46.78
2022-12-06T08:44:33.566Z,45.47
2022-12-06T08:47:07.034Z,45.53
2022-12-06T08:49:40.331Z,45.27
2022-12-06T08:52:13.675Z,44.21
2022-12-06T08:54:49.809Z,43.70
2022-12-06T08:57:22.958Z,43.20
2022-12-06T08:59:56.350Z,43.25
2022-12-06T09:02:30.077Z,43.47
2022-12-06T09:05:03.380Z,42.88
2022-12-06T09:07:36.362Z,42.27
2022-12-06T09:10:11.852Z,42.29
2022-12-06T09:12:45.038Z,41.71
2022-12-06T09:15:18.362Z,41.30
2022-12-06T09:17:51.311Z,39.75
2022-12-06T09:20:24.667Z,39.54
2022-12-06T09:22:58.901Z,39.18
2022-12-06T09:25:32.017Z,39.04
2022-12-06T09:28:05.919Z,39.08
2022-12-06T09:30:39.249Z,39.70
2022-12-06T09:33:12.368Z,39.11
2022-12-06T09:35:45.579Z,39.25
2022-12-06T09:38:19.221Z,39.14
2022-12-06T09:40:55.853Z,38.38
2022-12-06T09:43:36.699Z,38.75
2022-12-06T09:46:18.128Z,37.88
2022-12-06T09:49:08.745Z,38.43
2022-12-06T09:51:53.785Z,38.33
2022-12-06T09:54:35.062Z,37.31
2022-12-06T09:57:11.514Z,37.79
2022-12-06T09:59:49.079Z,37.87
2022-12-06T10:02:37.685Z,37.15
2022-12-06T10:05:36.996Z,36.73
2022-12-06T10:08:18.818Z,36.55
2022-12-06T10:11:05.373Z,36.19
2022-12-06T10:13:43.545Z,36.02
2022-12-06T10:16:20.821Z,37.25
2022-12-06T10:19:06.278Z,36.69
2022-12-06T10:21:46.595Z,35.66
2022-12-06T10:24:27.299Z,36.91
2022-12-06T10:27:03.251Z,36.35
2022-12-06T10:29:39.420Z,36.87
2022-12-06T10:32:18.702Z,35.98
2022-12-06T10:34:57.666Z,34.60
2022-12-06T10:37:38.445Z,34.95
2022-12-06T10:40:16.526Z,36.14
2022-12-06T10:42:52.776Z,36.28
2022-12-06T10:45:47.277Z,35.71
2022-12-06T10:48:23.243Z,36.43
2022-12-06T10:51:00.774Z,36.26
2022-12-06T10:53:37.217Z,36.88
2022-12-06T10:56:13.811Z,36.41
2022-12-06T10:58:50.163Z,35.75
2022-12-06T11:01:27.421Z,35.69
2022-12-06T11:04:04.045Z,35.62
2022-12-06T11:06:40.598Z,35.74
2022-12-06T11:09:17.635Z,35.50
2022-12-06T11:11:52.030Z,36.88
2022-12-06T11:14:27.919Z,36.36
2022-12-06T11:17:03.829Z,36.89
2022-12-06T11:19:39.930Z,36.46
2022-12-06T11:22:17.794Z,36.73
2022-12-06T11:24:50.916Z,36.64
2022-12-06T11:27:26.509Z,37.88
2022-12-06T11:30:00.329Z,36.26
2022-12-06T11:32:35.449Z,36.26
2022-12-06T11:35:15.120Z,36.65
2022-12-06T11:37:49.456Z,37.13
2022-12-06T11:40:25.953Z,36.70
2022-12-06T11:43:02.000Z,35.98
2022-12-06T11:45:37.339Z,35.92
2022-12-06T11:48:16.831Z,36.12
2022-12-06T11:50:51.512Z,36.33
2022-12-06T11:53:28.698Z,36.64
2022-12-06T11:56:04.652Z,36.83
2022-12-06T11:58:41.064Z,36.78
2022-12-06T12:01:15.004Z,36.81
2022-12-06T12:03:48.843Z,37.42
2022-12-06T12:06:25.542Z,37.06
2022-12-06T12:09:01.712Z,37.23
2022-12-06T12:11:37.464Z,37.38
2022-12-06T12:14:14.063Z,37.94
2022-12-06T12:16:50.799Z,38.64
2022-12-06T12:19:32.274Z,38.21
2022-12-06T12:22:17.472Z,38.11
2022-12-06T12:25:17.822Z,39.18
2022-12-06T12:27:47.970Z,39.38
2022-12-06T12:30:34.566Z,39.57
2022-12-06T12:33:18.516Z,39.83
2022-12-06T12:35:54.339Z,40.23
2022-12-06T12:38:31.101Z,40.62
2022-12-06T12:41:07.828Z,40.76
2022-12-06T12:43:43.728Z,40.66
2022-12-06T12:46:21.083Z,41.12
2022-12-06T12:48:54.738Z,41.01
2022-12-06T12:51:37.116Z,40.62
2022-12-06T12:54:21.840Z,40.78
2022-12-06T12:56:55.370Z,41.13
2022-12-06T12:59:30.985Z,41.39
2022-12-06T13:02:08.240Z,41.48
2022-12-06T13:04:43.838Z,40.93
2022-12-06T13:07:25.944Z,41.48
2022-12-06T13:10:03.220Z,41.66
2022-12-06T13:12:39.381Z,41.75
2022-12-06T13:15:17.765Z,41.95
2022-12-06T13:17:59.425Z,41.93
2022-12-06T13:20:31.538Z,41.78
2022-12-06T13:23:08.490Z,42.02
2022-12-06T13:25:43.099Z,42.48
2022-12-06T13:28:19.406Z,42.21
2022-12-06T13:30:55.246Z,42.49
2022-12-06T13:33:31.319Z,42.86
2022-12-06T13:36:07.051Z,42.89
2022-12-06T13:38:42.005Z,42.80
2022-12-06T13:41:19.971Z,42.63
2022-12-06T13:43:53.101Z,42.79
2022-12-06T13:46:36.659Z,43.12
2022-12-06T13:49:27.742Z,43.33
2022-12-06T13:52:01.045Z,43.39
2022-12-06T13:54:35.112Z,43.63
2022-12-06T13:57:27.096Z,43.57
2022-12-06T14:00:00.898Z,43.81
2022-12-06T14:02:53.694Z,43.72
2022-12-06T14:06:09.094Z,43.83
2022-12-06T14:08:41.168Z,44.02
2022-12-06T14:11:23.892Z,44.01
2022-12-06T14:14:07.314Z,44.33
2022-12-06T14:16:43.453Z,44.28
2022-12-06T14:19:19.876Z,44.34
2022-12-06T14:21:58.204Z,44.11
2022-12-06T14:24:36.259Z,44.31
2022-12-06T14:27:14.881Z,44.36
2022-12-06T14:30:00.916Z,44.33
2022-12-06T14:32:38.257Z,44.27
2022-12-06T14:35:16.404Z,44.29
2022-12-06T14:37:51.495Z,44.37
2022-12-06T14:40:45.709Z,44.16
2022-12-06T14:43:04.252Z,44.22
2022-12-06T14:45:37.831Z,44.27
2022-12-06T14:48:14.208Z,44.23
2022-12-06T14:50:49.533Z,44.07
2022-12-06T14:53:33.257Z,44.07
2022-12-06T14:56:08.684Z,43.96
2022-12-06T14:58:44.282Z,43.96
2022-12-06T15:01:20.891Z,43.99
2022-12-06T15:04:01.692Z,43.69
2022-12-06T15:06:36.361Z,43.55
2022-12-06T15:09:16.411Z,43.38
2022-12-06T15:12:07.703Z,43.40
2022-12-06T15:14:51.038Z,43.36
2022-12-06T15:17:25.057Z,43.33
2022-12-06T15:19:58.504Z,43.41
2022-12-06T15:22:31.947Z,42.99
2022-12-06T15:25:05.387Z,42.91
2022-12-06T15:27:38.450Z,42.80
2022-12-06T15:30:15.017Z,42.83
2022-12-06T15:32:48.125Z,42.73
2022-12-06T15:35:22.789Z,42.58
2022-12-06T15:37:56.096Z,42.67
2022-12-06T15:40:29.822Z,42.42
2022-12-06T15:43:03.040Z,42.62
2022-12-06T15:45:36.133Z,42.75
2022-12-06T15:48:10.208Z,42.62
2022-12-06T15:50:44.020Z,42.00
2022-12-06T15:53:19.451Z,41.88
2022-12-06T15:56:00.930Z,42.50
2022-12-06T15:58:35.332Z,42.34
2022-12-06T16:01:17.393Z,42.21
2022-12-06T16:03:58.591Z,42.73
2022-12-06T16:06:31.918Z,41.99
2022-12-06T16:09:05.123Z,41.67
2022-12-06T16:11:38.548Z,41.67
2022-12-06T16:14:13.477Z,41.77
2022-12-06T16:16:46.795Z,42.27
2022-12-06T16:19:20.155Z,42.26
2022-12-06T16:21:58.727Z,41.67
2022-12-06T16:24:31.856Z,41.73
2022-12-06T16:27:05.433Z,41.94
2022-12-06T16:29:38.519Z,42.16
2022-12-06T16:32:11.807Z,42.12
2022-12-06T16:34:44.911Z,42.16
2022-12-06T16:37:18.587Z,41.98
2022-12-06T16:39:52.671Z,41.75
2022-12-06T16:42:28.155Z,41.40
2022-12-06T16:45:02.559Z,41.78
2022-12-06T16:47:35.937Z,41.64
2022-12-06T16:50:13.128Z,41.78
2022-12-06T16:52:46.426Z,41.79
2022-12-06T16:55:22.197Z,41.63
2022-12-06T16:57:55.311Z,41.49
2022-12-06T17:00:28.935Z,41.28
2022-12-06T17:03:02.075Z,41.46
2022-12-06T17:05:35.479Z,41.83
2022-12-06T17:08:09.218Z,41.91
2022-12-06T17:10:42.346Z,41.85
2022-12-06T17:13:15.161Z,41.78
2022-12-06T17:15:48.276Z,41.61
2022-12-06T17:18:21.510Z,42.03
2022-12-06T17:20:55.577Z,42.14
2022-12-06T17:23:29.152Z,41.76
2022-12-06T17:26:02.505Z,42.01
2022-12-06T17:28:35.944Z,42.21
2022-12-06T17:31:11.121Z,42.36
2022-12-06T17:33:45.305Z,42.10
2022-12-06T17:36:23.682Z,42.25
2022-12-06T17:38:54.410Z,42.49
2022-12-06T17:41:51.551Z,42.43
2022-12-06T17:44:22.221Z,42.46
2022-12-06T17:46:56.040Z,42.07
2022-12-06T17:49:30.205Z,42.19
2022-12-06T17:52:03.932Z,42.01
2022-12-06T17:54:37.372Z,41.97
2022-12-06T17:57:15.768Z,42.10
2022-12-06T17:59:50.496Z,42.24
2022-12-06T18:02:26.306Z,42.56
2022-12-06T18:05:01.382Z,42.29
2022-12-06T18:07:35.740Z,42.41
2022-12-06T18:10:12.215Z,42.63
2022-12-06T18:12:47.031Z,42.57
2022-12-06T18:15:41.180Z,42.37
2022-12-06T18:18:15.955Z,42.43
2022-12-06T18:20:49.269Z,42.68
2022-12-06T18:23:22.685Z,42.69
2022-12-06T18:25:57.592Z,42.46
2022-12-06T18:28:30.984Z,42.50
2022-12-06T18:31:09.814Z,42.42
2022-12-06T18:33:50.867Z,42.66
2022-12-06T18:36:24.405Z,42.68
2022-12-06T18:39:10.934Z,42.50
2022-12-06T18:41:47.105Z,42.48
2022-12-06T18:44:24.446Z,42.30
2022-12-06T18:46:58.428Z,42.27
2022-12-06T18:49:32.181Z,42.29
2022-12-06T18:52:06.460Z,42.53
2022-12-06T18:54:41.034Z,42.49
2022-12-06T18:57:13.925Z,42.53
2022-12-06T18:59:47.073Z,42.46
2022-12-06T19:02:21.141Z,42.43
2022-12-06T19:05:00.742Z,42.59
2022-12-06T19:07:36.899Z,42.49
2022-12-06T19:10:12.011Z,42.43
2022-12-06T19:12:45.255Z,42.75
2022-12-06T19:15:18.580Z,42.68
2022-12-06T19:17:53.632Z,42.32
2022-12-06T19:20:26.686Z,42.35
2022-12-06T19:22:59.772Z,42.58
2022-12-06T19:25:32.865Z,42.56
2022-12-06T19:28:06.486Z,42.55
2022-12-06T19:30:39.696Z,42.90
2022-12-06T19:33:12.833Z,42.88
2022-12-06T19:35:47.508Z,42.86
2022-12-06T19:38:21.790Z,42.75
2022-12-06T19:40:55.482Z,42.81
2022-12-06T19:43:46.384Z,42.80
2022-12-06T19:46:22.039Z,42.75
2022-12-06T19:48:57.156Z,42.61
2022-12-06T19:51:30.348Z,42.58
2022-12-06T19:54:04.053Z,42.62
2022-12-06T19:56:38.747Z,42.60
2022-12-06T20:00:22.769Z,42.60
2022-12-06T20:03:09.484Z,42.71
2022-12-06T20:05:49.391Z,42.53
2022-12-06T20:08:35.693Z,42.65
2022-12-06T20:11:14.922Z,42.59
2022-12-06T20:13:47.150Z,42.40
2022-12-06T20:16:22.157Z,42.49
2022-12-06T20:18:55.585Z,42.31
2022-12-06T20:21:29.231Z,42.13
2022-12-06T20:24:02.669Z,42.07
2022-12-06T20:26:36.116Z,41.78
2022-12-06T20:29:09.267Z,41.73
2022-12-06T20:31:42.353Z,41.78
2022-12-06T20:34:16.611Z,41.91
2022-12-06T20:36:50.142Z,41.74
2022-12-06T20:39:25.499Z,41.63
2022-12-06T20:41:59.304Z,41.32
2022-12-06T20:44:32.713Z,41.36
2022-12-06T20:47:06.059Z,41.44
2022-12-06T20:49:42.801Z,41.42
2022-12-06T20:52:15.730Z,41.17
2022-12-06T20:54:48.771Z,41.34
2022-12-06T20:57:22.164Z,40.88
2022-12-06T20:59:55.296Z,40.86
2022-12-06T21:02:28.414Z,41.15
2022-12-06T21:05:01.625Z,40.99
2022-12-06T21:07:35.123Z,40.80
2022-12-06T21:10:14.273Z,40.96
2022-12-06T21:12:47.379Z,40.92
2022-12-06T21:15:20.751Z,40.23
2022-12-06T21:17:56.225Z,40.45
2022-12-06T21:20:35.066Z,40.32
2022-12-06T21:23:09.252Z,40.25
2022-12-06T21:25:45.296Z,40.26
2022-12-06T21:28:21.959Z,40.53
2022-12-06T21:31:01.477Z,40.40
2022-12-06T21:33:35.539Z,40.48
2022-12-06T21:36:09.982Z,40.63
2022-12-06T21:38:43.077Z,41.00
2022-12-06T21:41:16.280Z,40.55
2022-12-06T21:43:49.641Z,40.21
2022-12-06T21:46:24.764Z,40.45
2022-12-06T21:48:59.539Z,40.64
2022-12-06T21:51:33.715Z,40.16
2022-12-06T21:54:07.057Z,40.09
2022-12-06T21:56:40.287Z,40.54
2022-12-06T21:59:13.201Z,40.36
2022-12-06T22:01:46.281Z,40.35
2022-12-06T22:04:19.441Z,40.40
2022-12-06T22:06:52.454Z,40.45
2022-12-06T22:09:25.488Z,40.68
2022-12-06T22:11:58.579Z,40.43
2022-12-06T22:14:32.220Z,40.49
2022-12-06T22:17:05.440Z,40.08
2022-12-06T22:19:38.668Z,40.11
2022-12-06T22:22:11.722Z,40.10
2022-12-06T22:24:44.754Z,39.87
2022-12-06T22:27:21.949Z,40.06
2022-12-06T22:29:55.131Z,40.05
2022-12-06T22:32:28.235Z,40.42
2022-12-06T22:35:01.778Z,40.83
2022-12-06T22:37:35.019Z,40.59
2022-12-06T22:40:10.692Z,40.44
2022-12-06T22:42:43.735Z,40.65
2022-12-06T22:45:17.146Z,40.54
2022-12-06T22:47:50.150Z,40.63
2022-12-06T22:50:23.306Z,40.41
2022-12-06T22:52:56.462Z,40.46
2022-12-06T22:55:29.592Z,40.81
2022-12-06T22:58:02.608Z,40.93
2022-12-06T23:00:35.833Z,40.84
2022-12-06T23:03:08.633Z,40.62
2022-12-06T23:05:41.689Z,40.84
2022-12-06T23:08:14.815Z,40.85
2022-12-06T23:10:48.081Z,40.85
2022-12-06T23:13:22.012Z,40.83
2022-12-06T23:15:59.625Z,40.68
2022-12-06T23:18:31.528Z,40.52
2022-12-06T23:21:05.777Z,40.70
2022-12-06T23:23:39.685Z,40.46
2022-12-06T23:26:15.329Z,40.38
2022-12-06T23:28:48.768Z,40.43
2022-12-06T23:31:23.949Z,40.45
2022-12-06T23:33:59.511Z,39.95
2022-12-06T23:36:34.632Z,40.08
2022-12-06T23:39:08.371Z,40.08
2022-12-06T23:41:42.080Z,39.57
2022-12-06T23:44:15.774Z,39.78
2022-12-06T23:46:50.572Z,39.44
2022-12-06T23:49:24.426Z,39.60
2022-12-06T23:51:57.630Z,39.70
2022-12-06T23:54:30.858Z,40.12
2022-12-06T23:57:03.852Z,40.01
2022-12-06T23:59:37.440Z,39.93
